createdAt,value
2022-11-03T00:01:55.529Z,100.00
2022-11-03T00:04:25.146Z,100.00
2022-11-03T00:06:56.728Z,100.00
2022-11-03T00:09:27.709Z,100.00
2022-11-03T00:11:56.740Z,100.00
2022-11-03T00:14:25.846Z,100.00
2022-11-03T00:16:55.686Z,100.00
2022-11-03T00:19:24.771Z,100.00
2022-11-03T00:21:55.211Z,100.00
2022-11-03T00:24:24.677Z,100.00
2022-11-03T00:26:53.643Z,100.00
2022-11-03T00:29:22.653Z,100.00
2022-11-03T00:31:51.783Z,100.00
2022-11-03T00:34:20.715Z,100.00
2022-11-03T00:36:49.938Z,100.00
2022-11-03T00:39:20.394Z,100.00
2022-11-03T00:41:49.362Z,100.00
2022-11-03T00:44:18.299Z,100.00
2022-11-03T00:46:47.384Z,100.00
2022-11-03T00:49:16.593Z,100.00
2022-11-03T00:51:45.553Z,100.00
2022-11-03T00:54:14.562Z,100.00
2022-11-03T00:56:45.447Z,100.00
2022-11-03T00:59:14.526Z,100.00
2022-11-03T01:01:47.820Z,100.00
2022-11-03T01:04:35.755Z,100.00
2022-11-03T01:07:07.786Z,100.00
2022-11-03T01:09:40.678Z,100.00
2022-11-03T01:12:14.491Z,100.00
2022-11-03T01:14:46.461Z,100.00
2022-11-03T01:17:18.708Z,100.00
2022-11-03T01:19:48.686Z,100.00
2022-11-03T01:22:19.579Z,100.00
2022-11-03T01:24:49.486Z,100.00
2022-11-03T01:27:22.602Z,100.00
2022-11-03T01:29:52.087Z,100.00
2022-11-03T01:32:21.088Z,100.00
2022-11-03T01:34:50.026Z,100.00
2022-11-03T01:37:19.368Z,100.00
2022-11-03T01:39:48.419Z,100.00
2022-11-03T01:42:18.639Z,100.00
2022-11-03T01:44:50.478Z,100.00
2022-11-03T01:47:28.950Z,100.00
2022-11-03T01:50:04.853Z,100.00
2022-11-03T01:52:39.273Z,100.00
2022-11-03T01:55:14.982Z,100.00
2022-11-03T01:57:56.164Z,100.00
2022-11-03T02:00:25.259Z,100.00
2022-11-03T02:02:55.702Z,100.00
2022-11-03T02:05:28.721Z,100.00
2022-11-03T02:10:41.394Z,100.00
2022-11-03T02:13:19.926Z,100.00
2022-11-03T02:15:51.317Z,100.00
2022-11-03T02:18:25.831Z,100.00
2022-11-03T02:21:09.945Z,100.00
2022-11-03T02:23:49.206Z,100.00
2022-11-03T02:26:20.260Z,100.00
2022-11-03T02:28:49.442Z,100.00
2022-11-03T02:31:28.666Z,100.00
2022-11-03T02:34:07.489Z,100.00
2022-11-03T02:36:47.024Z,100.00
2022-11-03T02:39:22.834Z,100.00
2022-11-03T02:41:58.735Z,100.00
2022-11-03T02:44:30.117Z,100.00
2022-11-03T02:47:03.011Z,100.00
2022-11-03T02:49:32.175Z,100.00
2022-11-03T02:52:02.277Z,100.00
2022-11-03T02:54:38.593Z,100.00
2022-11-03T02:57:18.664Z,100.00
2022-11-03T02:59:54.991Z,100.00
2022-11-03T03:02:34.829Z,100.00
2022-11-03T03:05:10.329Z,100.00
2022-11-03T03:07:46.365Z,100.00
2022-11-03T03:10:19.574Z,100.00
2022-11-03T03:12:54.133Z,100.00
2022-11-03T03:15:35.948Z,100.00
2022-11-03T03:18:21.586Z,100.00
2022-11-03T03:21:01.465Z,100.00
2022-11-03T03:23:37.605Z,100.00
2022-11-03T03:26:16.177Z,100.00
2022-11-03T03:28:54.991Z,100.00
2022-11-03T03:31:27.996Z,100.00
2022-11-03T03:34:04.916Z,100.00
2022-11-03T03:36:45.020Z,100.00
2022-11-03T03:39:18.316Z,100.00
2022-11-03T03:41:50.123Z,100.00
2022-11-03T03:44:22.476Z,100.00
2022-11-03T03:46:59.130Z,100.00
2022-11-03T03:49:28.509Z,100.00
2022-11-03T03:51:58.042Z,100.00
2022-11-03T03:54:27.168Z,100.00
2022-11-03T03:57:02.761Z,100.00
2022-11-03T03:59:33.403Z,100.00
2022-11-03T04:02:03.255Z,100.00
2022-11-03T04:04:32.257Z,100.00
2022-11-03T04:07:18.612Z,100.00
2022-11-03T04:09:47.694Z,100.00
2022-11-03T04:12:34.218Z,100.00
2022-11-03T04:15:22.988Z,100.00
2022-11-03T04:18:10.523Z,100.00
2022-11-03T04:20:56.866Z,100.00
2022-11-03T04:23:25.912Z,100.00
2022-11-03T04:25:58.093Z,100.00
2022-11-03T04:28:28.620Z,100.00
2022-11-03T04:31:01.415Z,100.00
2022-11-03T04:33:31.434Z,100.00
2022-11-03T04:36:04.719Z,100.00
2022-11-03T04:38:33.757Z,100.00
2022-11-03T04:41:03.819Z,100.00
2022-11-03T04:43:36.791Z,100.00
2022-11-03T04:46:10.769Z,100.00
2022-11-03T04:48:40.356Z,100.00
2022-11-03T04:51:21.738Z,100.00
2022-11-03T04:53:56.041Z,100.00
2022-11-03T04:56:26.750Z,100.00
2022-11-03T04:58:55.997Z,100.00
2022-11-03T05:01:27.476Z,100.00
2022-11-03T05:03:57.414Z,100.00
2022-11-03T05:06:31.055Z,100.00
2022-11-03T05:09:07.102Z,100.00
2022-11-03T05:11:39.567Z,100.00
2022-11-03T05:14:17.615Z,100.00
2022-11-03T05:16:48.671Z,100.00
2022-11-03T05:19:24.164Z,100.00
2022-11-03T05:21:56.283Z,100.00
2022-11-03T05:24:27.129Z,100.00
2022-11-03T05:26:59.343Z,100.00
2022-11-03T05:29:37.036Z,100.00
2022-11-03T05:32:16.229Z,100.00
2022-11-03T05:34:48.399Z,100.00
2022-11-03T05:37:36.750Z,100.00
2022-11-03T05:40:24.280Z,100.00
2022-11-03T05:42:58.736Z,100.00
2022-11-03T05:45:34.544Z,100.00
2022-11-03T05:48:15.632Z,100.00
2022-11-03T05:50:48.363Z,100.00
2022-11-03T05:53:32.380Z,100.00
2022-11-03T05:56:05.191Z,100.00
2022-11-03T05:58:41.065Z,100.00
2022-11-03T06:01:20.491Z,100.00
2022-11-03T06:03:52.036Z,100.00
2022-11-03T06:06:32.164Z,100.00
2022-11-03T06:09:04.972Z,100.00
2022-11-03T06:11:38.721Z,100.00
2022-11-03T06:14:24.008Z,100.00
2022-11-03T06:16:58.134Z,100.00
2022-11-03T06:19:34.358Z,100.00
2022-11-03T06:22:13.942Z,100.00
2022-11-03T06:24:44.145Z,100.00
2022-11-03T06:27:17.775Z,100.00
2022-11-03T06:29:52.549Z,100.00
2022-11-03T06:32:21.768Z,100.00
2022-11-03T06:34:55.265Z,100.00
2022-11-03T06:37:28.123Z,100.00
2022-11-03T06:40:31.920Z,100.00
2022-11-03T06:43:02.399Z,100.00
2022-11-03T06:45:32.091Z,100.00
2022-11-03T06:48:04.894Z,100.00
2022-11-03T06:50:44.600Z,100.00
2022-11-03T06:53:26.516Z,100.00
2022-11-03T06:55:57.206Z,100.00
2022-11-03T06:58:32.077Z,100.00
2022-11-03T07:01:17.827Z,100.00
2022-11-03T07:03:47.952Z,100.00
2022-11-03T07:06:24.993Z,100.00
2022-11-03T07:08:58.018Z,100.00
2022-11-03T07:11:30.284Z,100.00
2022-11-03T07:14:05.286Z,100.00
2022-11-03T07:16:38.927Z,100.00
2022-11-03T07:19:19.427Z,100.00
2022-11-03T07:21:53.030Z,100.00
2022-11-03T07:24:27.200Z,100.00
2022-11-03T07:27:01.872Z,100.00
2022-11-03T07:29:33.372Z,100.00
2022-11-03T07:32:02.746Z,100.00
2022-11-03T07:34:35.255Z,100.00
2022-11-03T07:37:05.822Z,100.00
2022-11-03T07:39:39.339Z,100.00
2022-11-03T07:42:17.804Z,100.00
2022-11-03T07:44:46.843Z,100.00
2022-11-03T07:47:21.037Z,100.00
2022-11-03T07:49:50.521Z,100.00
2022-11-03T07:52:25.779Z,100.00
2022-11-03T07:54:58.531Z,100.00
2022-11-03T07:57:32.370Z,100.00
2022-11-03T08:00:10.352Z,100.00
2022-11-03T08:02:48.966Z,100.00
2022-11-03T08:07:56.108Z,100.00
2022-11-03T08:10:25.099Z,100.00
2022-11-03T08:12:54.935Z,100.00
2022-11-03T08:15:24.138Z,100.00
2022-11-03T08:17:56.125Z,100.00
2022-11-03T08:20:25.547Z,100.00
2022-11-03T08:25:44.950Z,100.00
2022-11-03T08:28:14.332Z,100.00
2022-11-03T08:30:43.925Z,100.00
2022-11-03T08:33:12.961Z,100.00
2022-11-03T08:35:42.378Z,100.00
2022-11-03T08:38:13.124Z,100.00
2022-11-03T08:40:44.714Z,100.00
2022-11-03T08:43:13.998Z,100.00
2022-11-03T08:45:43.295Z,100.00
2022-11-03T08:48:12.431Z,100.00
2022-11-03T08:50:41.710Z,100.00
2022-11-03T08:53:12.345Z,100.00
2022-11-03T08:55:41.380Z,99.74
2022-11-03T08:58:10.620Z,98.98
2022-11-03T09:00:41.178Z,97.91
2022-11-03T09:03:10.802Z,96.42
2022-11-03T09:05:39.939Z,93.76
2022-11-03T09:11:00.176Z,90.12
2022-11-03T09:13:33.886Z,90.07
2022-11-03T09:16:03.985Z,89.08
2022-11-03T09:18:34.333Z,88.95
2022-11-03T09:21:03.539Z,90.01
2022-11-03T09:23:35.251Z,90.31
2022-11-03T09:26:10.463Z,91.08
2022-11-03T09:28:59.383Z,91.54
2022-11-03T09:31:30.638Z,91.90
2022-11-03T09:37:06.376Z,91.47
2022-11-03T09:39:36.180Z,90.36
2022-11-03T09:42:08.804Z,89.88
2022-11-03T09:44:40.343Z,89.66
2022-11-03T09:47:17.407Z,89.44
2022-11-03T09:49:46.511Z,88.19
2022-11-03T09:52:24.192Z,86.59
2022-11-03T09:54:59.004Z,85.03
2022-11-03T09:57:30.225Z,82.62
2022-11-03T10:00:02.607Z,82.03
2022-11-03T10:02:34.135Z,80.54
2022-11-03T10:05:09.811Z,80.71
2022-11-03T10:07:40.099Z,80.61
2022-11-03T10:10:18.452Z,79.35
2022-11-03T10:12:52.436Z,79.90
2022-11-03T10:15:24.025Z,80.65
2022-11-03T10:17:53.889Z,80.66
2022-11-03T10:20:24.973Z,80.41
2022-11-03T10:22:56.754Z,81.11
2022-11-03T10:25:37.371Z,81.80
2022-11-03T10:28:21.738Z,82.35
2022-11-03T10:31:12.967Z,81.85
2022-11-03T10:33:51.973Z,82.27
2022-11-03T10:36:27.532Z,82.59
2022-11-03T10:38:57.352Z,83.46
2022-11-03T10:41:28.832Z,84.55
2022-11-03T10:44:20.846Z,84.93
2022-11-03T10:47:00.421Z,85.81
2022-11-03T10:49:32.376Z,86.77
2022-11-03T10:52:20.389Z,87.34
2022-11-03T10:54:50.044Z,87.75
2022-11-03T10:57:20.218Z,87.68
2022-11-03T10:59:54.378Z,87.63
2022-11-03T11:02:27.523Z,87.47
2022-11-03T11:05:01.450Z,86.77
2022-11-03T11:07:38.146Z,86.33
2022-11-03T11:10:18.171Z,86.76
2022-11-03T11:13:29.225Z,86.29
2022-11-03T11:16:01.857Z,86.52
2022-11-03T11:19:03.856Z,86.38
2022-11-03T11:22:04.098Z,86.69
2022-11-03T11:24:59.865Z,86.53
2022-11-03T11:28:19.840Z,86.68
2022-11-03T11:31:41.504Z,86.47
2022-11-03T11:34:41.599Z,86.66
2022-11-03T11:37:36.917Z,85.60
2022-11-03T11:40:14.942Z,84.71
2022-11-03T11:43:27.426Z,82.90
2022-11-03T11:46:41.560Z,81.62
2022-11-03T11:49:20.502Z,80.75
2022-11-03T11:51:49.999Z,80.74
2022-11-03T11:54:22.525Z,80.30
2022-11-03T11:56:52.525Z,78.12
2022-11-03T11:59:26.176Z,76.94
2022-11-03T12:01:59.213Z,75.93
2022-11-03T12:04:33.561Z,75.27
2022-11-03T12:07:03.304Z,76.35
2022-11-03T12:09:32.267Z,77.37
2022-11-03T12:12:08.582Z,77.86
2022-11-03T12:14:39.238Z,78.74
2022-11-03T12:17:35.770Z,79.87
2022-11-03T12:20:37.651Z,80.79
2022-11-03T12:23:06.651Z,81.19
2022-11-03T12:25:40.586Z,80.79
2022-11-03T12:28:09.638Z,81.04
2022-11-03T12:30:40.159Z,80.96
2022-11-03T12:33:11.093Z,81.40
2022-11-03T12:35:40.177Z,82.29
2022-11-03T12:38:09.800Z,82.22
2022-11-03T12:40:38.646Z,82.87
2022-11-03T12:43:07.793Z,83.54
2022-11-03T12:45:37.189Z,84.25
2022-11-03T12:48:07.245Z,85.06
2022-11-03T12:50:39.413Z,85.78
2022-11-03T12:53:08.908Z,86.09
2022-11-03T12:55:42.126Z,87.08
2022-11-03T12:58:14.323Z,87.56
2022-11-03T13:00:48.059Z,88.14
2022-11-03T13:03:23.084Z,87.90
2022-11-03T13:05:53.641Z,88.08
2022-11-03T13:08:22.992Z,88.68
2022-11-03T13:10:52.085Z,89.30
2022-11-03T13:13:21.410Z,89.63
2022-11-03T13:15:50.676Z,90.36
2022-11-03T13:18:20.147Z,90.81
2022-11-03T13:20:49.168Z,91.13
2022-11-03T13:23:22.975Z,91.65
2022-11-03T13:25:52.134Z,91.93
2022-11-03T13:28:21.224Z,92.44
2022-11-03T13:30:50.399Z,92.97
2022-11-03T13:33:19.380Z,93.48
2022-11-03T13:35:48.398Z,93.82
2022-11-03T13:38:19.129Z,94.32
2022-11-03T13:40:57.229Z,94.14
2022-11-03T13:43:27.610Z,94.25
2022-11-03T13:45:58.763Z,95.07
2022-11-03T13:51:18.622Z,95.41
2022-11-03T13:59:28.140Z,96.15
2022-11-03T14:04:46.886Z,96.53
2022-11-03T14:07:15.839Z,96.76
2022-11-03T14:09:46.237Z,96.66
2022-11-03T14:12:34.770Z,97.41
2022-11-03T14:15:07.925Z,98.04
2022-11-03T14:17:37.372Z,98.09
2022-11-03T14:20:12.358Z,98.50
2022-11-03T14:22:42.071Z,98.86
2022-11-03T14:25:12.506Z,99.44
2022-11-03T14:27:41.588Z,99.66
2022-11-03T14:30:13.288Z,99.64
2022-11-03T14:32:42.188Z,99.76
2022-11-03T14:35:11.756Z,99.73
2022-11-03T14:37:40.956Z,99.77
2022-11-03T14:40:34.155Z,100.00
2022-11-03T14:43:02.301Z,100.00
2022-11-03T14:45:31.254Z,100.00
2022-11-03T15:40:10.052Z,100.00
2022-11-03T15:42:38.849Z,100.00
2022-11-03T15:45:10.131Z,100.00
2022-11-03T15:47:39.270Z,100.00
2022-11-03T15:50:09.544Z,100.00
2022-11-03T15:52:39.264Z,100.00
2022-11-03T15:55:11.210Z,100.00
2022-11-03T15:57:40.047Z,100.00
2022-11-03T16:00:12.574Z,100.00
2022-11-03T16:02:42.475Z,100.00
2022-11-03T16:05:12.452Z,100.00
2022-11-03T16:07:41.667Z,100.00
2022-11-03T16:10:12.246Z,100.00
2022-11-03T16:12:52.608Z,100.00
2022-11-03T16:15:21.563Z,100.00
2022-11-03T16:17:50.390Z,100.00
2022-11-03T16:20:20.620Z,100.00
2022-11-03T16:22:49.533Z,100.00
2022-11-03T16:25:21.490Z,100.00
2022-11-03T16:27:50.627Z,100.00
2022-11-03T16:30:19.660Z,100.00
2022-11-03T16:32:48.491Z,100.00
2022-11-03T16:35:17.387Z,100.00
2022-11-03T16:37:46.209Z,100.00
2022-11-03T16:40:19.333Z,100.00
2022-11-03T16:42:50.248Z,100.00
2022-11-03T16:45:21.858Z,100.00
2022-11-03T16:47:52.316Z,100.00
2022-11-03T16:50:21.838Z,100.00
2022-11-03T16:52:51.993Z,100.00
2022-11-03T16:55:21.603Z,100.00
2022-11-03T16:57:51.718Z,100.00
2022-11-03T17:00:24.198Z,100.00
2022-11-03T17:02:53.399Z,100.00
2022-11-03T17:05:22.803Z,100.00
2022-11-03T17:07:54.503Z,100.00
2022-11-03T17:10:23.914Z,100.00
2022-11-03T17:12:54.329Z,100.00
2022-11-03T17:15:23.907Z,100.00
2022-11-03T17:17:52.903Z,100.00
2022-11-03T17:20:21.672Z,100.00
2022-11-03T17:22:50.600Z,100.00
2022-11-03T17:25:19.606Z,100.00
2022-11-03T17:27:55.418Z,100.00
2022-11-03T17:30:27.736Z,100.00
2022-11-03T17:32:59.362Z,100.00
2022-11-03T17:35:39.261Z,100.00
2022-11-03T17:38:14.075Z,100.00
2022-11-03T17:40:45.222Z,100.00
2022-11-03T17:43:23.007Z,100.00
2022-11-03T17:45:52.394Z,100.00
2022-11-03T17:48:22.864Z,100.00
2022-11-03T17:50:57.174Z,100.00
2022-11-03T17:53:31.384Z,100.00
2022-11-03T17:56:29.005Z,100.00
2022-11-03T17:58:53.922Z,100.00
2022-11-03T18:01:27.780Z,100.00
2022-11-03T18:03:57.258Z,100.00
2022-11-03T18:06:26.258Z,100.00
2022-11-03T18:08:55.145Z,100.00
2022-11-03T18:11:49.213Z,100.00
2022-11-03T18:14:20.768Z,100.00
2022-11-03T18:16:51.494Z,100.00
2022-11-03T18:19:20.811Z,100.00
2022-11-03T18:21:50.140Z,100.00
2022-11-03T18:24:21.899Z,100.00
2022-11-03T18:26:52.083Z,100.00
2022-11-03T18:29:22.552Z,100.00
2022-11-03T18:31:51.563Z,100.00
2022-11-03T18:34:25.491Z,100.00
2022-11-03T18:36:56.025Z,100.00
2022-11-03T18:39:28.147Z,100.00
2022-11-03T18:41:57.611Z,100.00
2022-11-03T18:44:30.293Z,100.00
2022-11-03T18:47:00.377Z,100.00
2022-11-03T18:49:33.405Z,100.00
2022-11-03T18:52:05.810Z,100.00
2022-11-03T18:54:36.330Z,100.00
2022-11-03T18:57:05.504Z,100.00
2022-11-03T18:59:40.576Z,100.00
2022-11-03T19:02:19.214Z,100.00
2022-11-03T19:04:49.064Z,100.00
2022-11-03T19:07:26.423Z,100.00
2022-11-03T19:09:55.283Z,100.00
2022-11-03T19:12:24.243Z,100.00
2022-11-03T19:14:58.057Z,100.00
2022-11-03T19:17:27.445Z,100.00
2022-11-03T19:19:56.810Z,100.00
2022-11-03T19:22:26.518Z,100.00
2022-11-03T19:24:55.348Z,100.00
2022-11-03T19:27:27.793Z,100.00
2022-11-03T19:30:00.643Z,100.00
2022-11-03T19:32:39.842Z,100.00
2022-11-03T19:35:18.418Z,100.00
2022-11-03T19:37:49.411Z,100.00
2022-11-03T19:40:21.507Z,100.00
2022-11-03T19:42:49.303Z,100.00
2022-11-03T19:45:23.702Z,100.00
2022-11-03T19:50:49.931Z,100.00
2022-11-03T19:53:24.209Z,100.00
2022-11-03T19:55:53.849Z,100.00
2022-11-03T19:58:24.997Z,100.00
2022-11-03T20:00:56.325Z,100.00
2022-11-03T20:03:25.751Z,100.00
2022-11-03T20:05:58.164Z,100.00
2022-11-03T20:08:28.742Z,100.00
2022-11-03T20:10:57.477Z,100.00
2022-11-03T20:13:31.429Z,100.00
2022-11-03T20:16:01.851Z,100.00
2022-11-03T20:18:31.021Z,100.00
2022-11-03T20:21:00.509Z,100.00
2022-11-03T20:23:32.448Z,100.00
2022-11-03T20:26:04.476Z,100.00
2022-11-03T20:28:38.440Z,100.00
2022-11-03T20:31:08.854Z,100.00
2022-11-03T20:33:37.975Z,100.00
2022-11-03T20:36:07.853Z,100.00
2022-11-03T20:38:38.401Z,100.00
2022-11-03T20:41:16.477Z,100.00
2022-11-03T20:43:48.477Z,100.00
2022-11-03T20:46:29.191Z,100.00
2022-11-03T20:48:58.982Z,100.00
2022-11-03T20:51:33.943Z,100.00
2022-11-03T20:54:06.182Z,100.00
2022-11-03T20:56:35.686Z,100.00
2022-11-03T20:59:04.580Z,100.00
2022-11-03T21:01:36.244Z,100.00
2022-11-03T21:04:09.809Z,100.00
2022-11-03T21:06:39.010Z,100.00
2022-11-03T21:09:13.207Z,100.00
2022-11-03T21:11:43.579Z,100.00
2022-11-03T21:14:20.657Z,100.00
2022-11-03T21:17:08.297Z,100.00
2022-11-03T21:19:55.129Z,100.00
2022-11-03T21:25:17.769Z,100.00
2022-11-03T21:27:47.670Z,100.00
2022-11-03T21:30:18.591Z,100.00
2022-11-03T21:32:49.120Z,100.00
2022-11-03T21:35:20.567Z,100.00
2022-11-03T21:37:49.585Z,100.00
2022-11-03T21:40:19.171Z,100.00
2022-11-03T21:43:05.560Z,100.00
2022-11-03T21:45:34.797Z,100.00
2022-11-03T21:48:23.166Z,100.00
2022-11-03T21:50:52.345Z,100.00
2022-11-03T21:53:21.206Z,100.00
2022-11-03T21:55:50.465Z,100.00
2022-11-03T21:58:19.429Z,100.00
2022-11-03T22:00:48.397Z,100.00
2022-11-03T22:03:18.753Z,100.00
2022-11-03T22:05:47.605Z,100.00
2022-11-03T22:08:16.372Z,100.00
2022-11-03T22:10:45.216Z,100.00
2022-11-03T22:13:14.074Z,100.00
2022-11-03T22:16:00.295Z,100.00
2022-11-03T22:18:30.544Z,100.00
2022-11-03T22:21:17.322Z,100.00
2022-11-03T22:24:09.052Z,100.00
2022-11-03T22:26:55.437Z,100.00
2022-11-03T22:29:42.026Z,100.00
2022-11-03T22:32:15.958Z,100.00
2022-11-03T22:35:05.480Z,100.00
2022-11-03T22:40:19.587Z,100.00
2022-11-03T22:43:06.218Z,100.00
2022-11-03T22:45:54.720Z,100.00
2022-11-03T22:48:26.337Z,100.00
2022-11-03T22:51:05.363Z,100.00
2022-11-03T22:53:54.281Z,100.00
2022-11-03T22:56:25.705Z,100.00
2022-11-03T22:58:54.825Z,100.00
2022-11-03T23:01:26.910Z,100.00
2022-11-03T23:03:56.519Z,100.00
2022-11-03T23:06:29.911Z,100.00
2022-11-03T23:08:59.293Z,100.00
2022-11-03T23:11:32.611Z,100.00
2022-11-03T23:14:04.679Z,100.00
2022-11-03T23:16:36.932Z,100.00
2022-11-03T23:19:25.406Z,100.00
2022-11-03T23:21:56.396Z,100.00
2022-11-03T23:24:45.362Z,100.00
2022-11-03T23:27:15.734Z,100.00
2022-11-03T23:29:44.503Z,100.00
2022-11-03T23:32:13.709Z,100.00
2022-11-03T23:34:42.547Z,100.00
2022-11-03T23:37:12.838Z,100.00
2022-11-03T23:39:41.711Z,100.00
2022-11-03T23:42:10.774Z,100.00
2022-11-03T23:44:56.839Z,100.00
2022-11-03T23:47:43.151Z,100.00
2022-11-03T23:50:11.896Z,100.00
2022-11-03T23:52:42.216Z,100.00
2022-11-03T23:55:11.404Z,100.00
2022-11-03T23:57:57.830Z,100.00
